Time;durP1;ratioP1;P1;durP2;ratioP2;P2;SDS_P1;SDS_P2;PMS_P1;PMS_P2;Temp;Humidity;BMP_temperature;BMP_pressure;BME280_temperature;BME280_humidity;BME280_pressure;Samples;Min_cycle;Max_cycle;Signal;HPM_P1;HPM_P2
2022/02/02 00:01:27;;;;;;;9.70;3.07;;;8.80;99.90;;;;;;5065906;28;20234;-66
2022/02/02 00:03:57;;;;;;;14.50;3.10;;;8.80;99.90;;;;;;5066830;28;20192;-65
2022/02/02 00:06:32;;;;;;;11.00;3.03;;;8.70;99.90;;;;;;5058470;28;20864;-66
2022/02/02 00:09:04;;;;;;;10.07;3.07;;;8.70;99.90;;;;;;5065280;28;20200;-65
2022/02/02 00:12:13;;;;;;;7.80;2.80;;;8.70;99.90;;;;;;5064537;28;20196;-65
2022/02/02 00:14:55;;;;;;;10.80;3.20;;;8.70;99.90;;;;;;5067066;28;20253;-65
2022/02/02 00:17:45;;;;;;;8.70;3.10;;;8.70;99.90;;;;;;5070927;28;20296;-65
2022/02/02 00:20:23;;;;;;;11.17;3.17;;;8.70;99.90;;;;;;5060445;28;20207;-65
2022/02/02 00:22:54;;;;;;;12.90;4.00;;;8.70;99.90;;;;;;5063035;28;20188;-65
2022/02/02 00:25:29;;;;;;;15.10;4.03;;;8.70;99.90;;;;;;5057885;28;20196;-65
2022/02/02 00:27:59;;;;;;;12.50;3.37;;;8.70;99.90;;;;;;5065421;28;20192;-65
2022/02/02 00:30:32;;;;;;;14.40;3.33;;;8.70;99.90;;;;;;5060589;28;20196;-65
2022/02/02 00:33:14;;;;;;;12.03;3.67;;;8.60;99.90;;;;;;5064646;28;20247;-65
2022/02/02 00:35:53;;;;;;;9.67;3.13;;;8.70;99.90;;;;;;5068489;28;20212;-65
2022/02/02 00:38:22;;;;;;;13.97;3.80;;;8.70;99.90;;;;;;5061632;28;20256;-65
2022/02/02 00:40:50;;;;;;;21.43;3.53;;;8.60;99.90;;;;;;5057981;28;20208;-65
2022/02/02 00:43:19;;;;;;;14.27;3.10;;;8.60;99.90;;;;;;5056989;28;20602;-65
2022/02/02 00:46:07;;;;;;;13.40;3.30;;;8.60;99.90;;;;;;5062337;28;20284;-65
2022/02/02 00:48:37;;;;;;;10.30;3.20;;;8.60;99.90;;;;;;5059556;28;20208;-64
2022/02/02 00:51:06;;;;;;;12.60;3.60;;;8.60;99.90;;;;;;5062665;28;20192;-65
2022/02/02 00:53:35;;;;;;;12.37;3.40;;;8.70;99.90;;;;;;5063805;28;20275;-65
2022/02/02 00:56:03;;;;;;;8.60;3.40;;;8.70;99.90;;;;;;5067893;28;20275;-65
2022/02/02 00:58:33;;;;;;;10.87;3.57;;;8.70;99.90;;;;;;5056977;28;20195;-65
2022/02/02 01:01:02;;;;;;;10.43;3.70;;;8.80;99.90;;;;;;5058621;28;20253;-65
2022/02/02 01:04:10;;;;;;;11.90;3.20;;;8.80;99.90;;;;;;5060940;28;20233;-65
2022/02/02 01:07:22;;;;;;;13.63;3.80;;;8.80;99.90;;;;;;5058288;28;20749;-65
2022/02/02 01:10:04;;;;;;;10.07;3.20;;;8.70;99.90;;;;;;5062773;28;20293;-65
2022/02/02 01:12:45;;;;;;;9.80;3.90;;;8.70;99.90;;;;;;5058899;28;20604;-65
2022/02/02 01:18:19;;;;;;;14.57;3.40;;;8.70;99.90;;;;;;5054035;28;20196;-65
2022/02/02 01:20:54;;;;;;;16.80;3.40;;;8.70;99.90;;;;;;5071330;28;20216;-65
2022/02/02 01:28:55;;;;;;;11.77;2.93;;;8.90;99.90;;;;;;5055672;28;20231;-65
2022/02/02 01:31:24;;;;;;;13.03;3.20;;;8.90;99.90;;;;;;5058403;28;20611;-65
2022/02/02 01:33:53;;;;;;;11.30;3.40;;;8.80;99.90;;;;;;5058624;28;20304;-65
2022/02/02 01:36:23;;;;;;;13.23;3.23;;;8.80;99.90;;;;;;5063766;28;20215;-65
2022/02/02 01:38:53;;;;;;;9.47;3.50;;;8.80;99.90;;;;;;5062418;28;20253;-65
2022/02/02 01:41:30;;;;;;;9.50;3.30;;;8.80;99.90;;;;;;5059731;28;20256;-65
2022/02/02 01:44:06;;;;;;;11.00;3.40;;;8.80;99.90;;;;;;5053945;28;20660;-66
2022/02/02 01:46:36;;;;;;;13.43;3.47;;;8.80;99.90;;;;;;5063707;28;20204;-63
2022/02/02 01:52:14;;;;;;;12.63;3.60;;;8.80;99.90;;;;;;5055867;28;20234;-65
2022/02/02 01:54:56;;;;;;;13.10;3.37;;;8.80;99.90;;;;;;5063455;28;20266;-65
2022/02/02 01:57:48;;;;;;;11.83;3.43;;;8.80;99.90;;;;;;5058432;28;20293;-64
2022/02/02 02:00:17;;;;;;;13.53;3.60;;;8.80;99.90;;;;;;5058619;28;20224;-65
2022/02/02 02:02:46;;;;;;;10.60;3.33;;;8.80;99.90;;;;;;5057213;28;20192;-65
2022/02/02 02:05:14;;;;;;;5.23;3.00;;;8.80;99.90;;;;;;5057286;28;20193;-65
2022/02/02 02:07:44;;;;;;;13.73;3.70;;;8.80;99.90;;;;;;5060679;28;20294;-65
2022/02/02 02:10:12;;;;;;;13.00;4.07;;;8.80;99.90;;;;;;5050313;28;20205;-65
2022/02/02 02:12:48;;;;;;;17.90;3.67;;;8.80;99.90;;;;;;5061895;28;20730;-64
2022/02/02 02:15:18;;;;;;;8.20;3.50;;;8.80;99.90;;;;;;5051104;28;20379;-64
2022/02/02 02:17:46;;;;;;;11.83;3.10;;;8.80;99.90;;;;;;5056294;28;20220;-64
2022/02/02 02:20:15;;;;;;;9.60;3.27;;;8.90;99.90;;;;;;5059404;28;20196;-65
2022/02/02 02:22:45;;;;;;;10.47;3.13;;;8.90;99.90;;;;;;5058457;28;20234;-64
2022/02/02 02:25:21;;;;;;;6.77;3.10;;;8.80;99.90;;;;;;5055789;28;20827;-65
2022/02/02 02:27:51;;;;;;;11.53;2.83;;;8.80;99.90;;;;;;5057333;28;20215;-63
2022/02/02 02:30:27;;;;;;;8.37;3.40;;;8.80;99.90;;;;;;5061504;28;20732;-65
2022/02/02 02:39:20;;;;;;;4.93;2.77;;;8.50;99.90;;;;;;5055425;28;20200;-65
2022/02/02 02:55:53;;;;;;;9.67;3.33;;;8.40;99.90;;;;;;5060450;28;20654;-64
2022/02/02 02:58:39;;;;;;;9.30;3.53;;;8.30;99.90;;;;;;5057870;28;20197;-65
2022/02/02 03:01:21;;;;;;;10.07;3.20;;;8.30;99.90;;;;;;5060751;28;20253;-64
2022/02/02 03:31:44;;;;;;;13.13;2.90;;;8.10;99.90;;;;;;5058903;28;20250;-65
2022/02/02 03:56:55;;;;;;;7.37;2.70;;;8.10;99.90;;;;;;5054825;28;20269;-64
2022/02/02 03:59:38;;;;;;;4.50;2.90;;;8.10;99.90;;;;;;5055758;28;20212;-64
2022/02/02 04:02:18;;;;;;;7.50;2.87;;;8.10;99.90;;;;;;5062314;28;20228;-64
2022/02/02 04:07:42;;;;;;;7.17;3.07;;;8.10;99.90;;;;;;5046113;28;20249;-64
2022/02/02 04:10:11;;;;;;;7.60;3.03;;;8.10;99.90;;;;;;5058345;28;20201;-65
2022/02/02 04:12:49;;;;;;;8.43;3.07;;;8.10;99.90;;;;;;5058723;28;20192;-65
2022/02/02 04:37:54;;;;;;;6.70;2.70;;;8.40;99.90;;;;;;5064726;28;20212;-65
2022/02/02 04:51:38;;;;;;;7.50;3.30;;;8.60;99.90;;;;;;5062530;28;20250;-66
2022/02/02 04:54:21;;;;;;;8.43;3.30;;;8.60;99.90;;;;;;5055347;28;20223;-66
2022/02/02 04:57:27;;;;;;;5.60;2.90;;;8.60;99.90;;;;;;5059723;28;20579;-66
2022/02/02 05:00:10;;;;;;;6.10;2.70;;;8.60;99.90;;;;;;5060023;28;20632;-66
2022/02/02 05:08:23;;;;;;;5.93;2.57;;;8.60;99.90;;;;;;5065624;28;20633;-66
2022/02/02 05:11:08;;;;;;;8.93;3.10;;;8.60;99.90;;;;;;5058100;28;20721;-66
2022/02/02 05:16:42;;;;;;;5.90;2.60;;;8.60;99.90;;;;;;5056658;28;20204;-66
2022/02/02 05:19:38;;;;;;;7.93;2.67;;;8.60;99.90;;;;;;5061817;28;20204;-66
2022/02/02 05:22:41;;;;;;;6.53;2.70;;;8.60;99.90;;;;;;5063241;28;20204;-66
2022/02/02 05:26:02;;;;;;;6.03;2.90;;;8.60;99.90;;;;;;5063122;28;20184;-66
2022/02/02 05:53:37;;;;;;;8.87;3.43;;;8.70;99.90;;;;;;5057992;28;20207;-66
2022/02/02 05:56:08;;;;;;;34.27;12.63;;;8.80;99.90;;;;;;5054311;28;20253;-66
2022/02/02 05:58:39;;;;;;;20.33;9.90;;;8.90;99.90;;;;;;5057642;28;20218;-66
2022/02/02 06:01:10;;;;;;;8.67;3.50;;;8.90;99.90;;;;;;5054020;28;20313;-65
2022/02/02 06:03:52;;;;;;;12.97;6.07;;;8.80;99.90;;;;;;5057133;28;20203;-66
2022/02/02 06:06:22;;;;;;;9.90;3.83;;;8.80;99.90;;;;;;5057865;28;20653;-65
2022/02/02 06:08:53;;;;;;;11.00;3.00;;;8.80;99.90;;;;;;5057746;28;20188;-66
2022/02/02 06:11:23;;;;;;;5.53;2.50;;;8.90;99.90;;;;;;5057366;28;20196;-65
2022/02/02 06:13:57;;;;;;;4.47;2.70;;;8.90;99.90;;;;;;5056611;28;20201;-65
2022/02/02 06:16:29;;;;;;;6.33;2.80;;;8.90;99.90;;;;;;5058559;28;20604;-65
2022/02/02 06:19:00;;;;;;;6.70;2.80;;;8.90;99.90;;;;;;5064031;28;20246;-65
2022/02/02 06:21:31;;;;;;;6.60;2.40;;;8.90;99.90;;;;;;5061166;28;20204;-65
2022/02/02 06:24:07;;;;;;;10.03;2.73;;;8.90;99.90;;;;;;5057962;28;20208;-65
2022/02/02 06:26:36;;;;;;;6.27;3.10;;;9.00;99.90;;;;;;5056387;28;20550;-65
2022/02/02 06:29:08;;;;;;;10.50;3.93;;;9.00;99.90;;;;;;5057342;28;20254;-65
2022/02/02 06:31:39;;;;;;;6.33;2.60;;;9.00;99.90;;;;;;5063686;28;20201;-65
2022/02/02 06:34:10;;;;;;;10.37;3.77;;;8.90;99.90;;;;;;5065147;28;20196;-65
2022/02/02 06:36:40;;;;;;;10.97;3.27;;;8.90;99.90;;;;;;5059882;28;20686;-65
2022/02/02 06:39:10;;;;;;;6.97;3.03;;;8.90;99.90;;;;;;5055099;28;20247;-67
2022/02/02 06:41:38;;;;;;;6.77;2.63;;;8.90;99.90;;;;;;5060341;28;20196;-65
2022/02/02 06:44:08;;;;;;;5.87;3.10;;;8.90;99.90;;;;;;5055528;28;20231;-65
2022/02/02 06:46:40;;;;;;;7.27;4.27;;;8.80;99.90;;;;;;5055540;28;20184;-65
2022/02/02 06:49:10;;;;;;;7.73;4.43;;;8.80;99.90;;;;;;5058112;28;20214;-65
2022/02/02 06:51:48;;;;;;;7.23;3.63;;;8.80;99.90;;;;;;5062592;28;20231;-65
2022/02/02 06:54:25;;;;;;;9.90;4.63;;;8.80;99.90;;;;;;5057107;28;20364;-65
2022/02/02 06:57:00;;;;;;;7.73;4.27;;;8.80;99.90;;;;;;5056797;28;20247;-65
2022/02/02 06:59:48;;;;;;;6.77;2.80;;;8.80;99.90;;;;;;5064045;28;20254;-64
2022/02/02 07:02:39;;;;;;;10.67;3.40;;;8.80;99.90;;;;;;5057417;28;20188;-65
2022/02/02 07:05:25;;;;;;;8.33;3.60;;;8.80;99.90;;;;;;5061027;28;20192;-65
2022/02/02 07:08:23;;;;;;;10.77;3.90;;;8.80;99.90;;;;;;5063179;28;20254;-65
2022/02/02 07:13:49;;;;;;;9.80;3.07;;;8.80;99.90;;;;;;5053700;28;20258;-64
2022/02/02 07:16:32;;;;;;;4.57;2.37;;;8.80;99.90;;;;;;5064506;28;20689;-65
2022/02/02 07:19:12;;;;;;;9.20;2.40;;;8.80;99.90;;;;;;5067502;28;20196;-65
2022/02/02 07:30:12;;;;;;;11.93;3.03;;;8.80;99.90;;;;;;5071041;28;20595;-65
2022/02/02 07:32:49;;;;;;;7.30;2.73;;;8.80;99.90;;;;;;5062711;28;20205;-65
2022/02/02 07:35:23;;;;;;;7.70;2.67;;;8.70;99.90;;;;;;5054485;28;20303;-65
2022/02/02 07:37:59;;;;;;;7.43;3.00;;;8.70;99.90;;;;;;5071581;28;20189;-65
2022/02/02 07:40:29;;;;;;;6.97;3.00;;;8.70;99.90;;;;;;5065327;28;20232;-65
2022/02/02 07:43:02;;;;;;;5.07;2.90;;;8.70;99.90;;;;;;5058063;28;20546;-65
2022/02/02 07:45:34;;;;;;;10.87;4.00;;;8.70;99.90;;;;;;5062995;28;21198;-65
2022/02/02 07:48:07;;;;;;;9.70;4.30;;;8.80;99.90;;;;;;5064940;28;20199;-65
2022/02/02 07:50:36;;;;;;;5.17;3.47;;;8.80;99.90;;;;;;5060084;28;20192;-65
2022/02/02 07:53:08;;;;;;;11.63;4.70;;;8.80;99.90;;;;;;5070155;28;20204;-65
2022/02/02 07:55:40;;;;;;;12.30;3.80;;;8.80;99.90;;;;;;5062324;28;20263;-65
2022/02/02 07:58:11;;;;;;;7.27;3.00;;;8.80;99.90;;;;;;5060760;28;20257;-65
2022/02/02 08:00:39;;;;;;;8.20;3.57;;;8.80;99.90;;;;;;5062358;28;20192;-66
2022/02/02 08:03:12;;;;;;;13.37;4.77;;;8.80;99.90;;;;;;5060841;28;20266;-66
2022/02/02 08:05:45;;;;;;;15.07;5.70;;;8.80;99.90;;;;;;5055637;28;20193;-67
2022/02/02 08:08:27;;;;;;;10.43;3.90;;;8.80;99.90;;;;;;5063391;28;20254;-67
2022/02/02 08:10:56;;;;;;;11.00;4.57;;;8.80;99.90;;;;;;5057166;28;20284;-64
2022/02/02 08:13:36;;;;;;;14.40;4.60;;;8.90;99.90;;;;;;5057651;28;20192;-66
2022/02/02 08:16:08;;;;;;;12.33;4.20;;;8.90;99.90;;;;;;5050833;28;20223;-64
2022/02/02 08:18:40;;;;;;;13.57;4.83;;;8.90;99.90;;;;;;5057183;28;20758;-66
2022/02/02 08:21:09;;;;;;;12.03;4.47;;;8.90;99.90;;;;;;5061713;28;20234;-67
2022/02/02 08:23:37;;;;;;;14.20;4.67;;;8.90;99.90;;;;;;5060742;28;20188;-67
2022/02/02 08:26:13;;;;;;;11.47;4.27;;;8.90;99.90;;;;;;5064433;28;20206;-65
2022/02/02 08:28:42;;;;;;;10.63;3.63;;;8.90;99.90;;;;;;5066278;28;20576;-64
2022/02/02 08:31:12;;;;;;;14.13;3.90;;;8.90;99.90;;;;;;5062826;28;20200;-64
2022/02/02 08:33:45;;;;;;;12.67;4.50;;;9.00;99.90;;;;;;5060284;28;20205;-64
2022/02/02 08:36:19;;;;;;;10.60;3.77;;;9.00;99.90;;;;;;5061761;28;20565;-66
2022/02/02 08:39:02;;;;;;;18.23;5.63;;;8.90;99.90;;;;;;5058557;28;20204;-65
2022/02/02 08:41:35;;;;;;;13.43;4.80;;;9.00;99.90;;;;;;5065131;28;20200;-67
2022/02/02 08:44:07;;;;;;;10.77;3.83;;;9.00;99.90;;;;;;5059181;28;20236;-65
2022/02/02 08:46:39;;;;;;;8.87;3.20;;;9.00;99.90;;;;;;5061440;28;20211;-65
2022/02/02 08:49:13;;;;;;;9.83;3.67;;;9.00;99.90;;;;;;5056958;28;20282;-65
2022/02/02 08:51:44;;;;;;;9.03;3.37;;;9.00;99.90;;;;;;5060862;28;20670;-67
2022/02/02 08:54:21;;;;;;;11.33;3.30;;;9.00;99.90;;;;;;5072930;28;20702;-66
2022/02/02 08:59:37;;;;;;;9.20;3.50;;;9.00;99.90;;;;;;5064413;28;20237;-65
2022/02/02 09:02:10;;;;;;;11.77;3.23;;;9.00;99.90;;;;;;5071188;28;20184;-65
2022/02/02 09:07:26;;;;;;;8.23;3.00;;;8.90;99.90;;;;;;5067338;28;20193;-65
2022/02/02 09:10:00;;;;;;;4.73;2.73;;;8.90;99.90;;;;;;5065694;28;20211;-66
2022/02/02 09:23:58;;;;;;;11.33;4.37;;;8.90;99.90;;;;;;5039531;28;20227;-65
2022/02/02 09:32:15;;;;;;;6.43;4.37;;;8.90;99.90;;;;;;5059415;28;20282;-65
2022/02/02 09:34:44;;;;;;;12.53;4.80;;;8.90;99.90;;;;;;5063478;28;20196;-65
2022/02/02 09:37:16;;;;;;;12.17;5.73;;;8.90;99.90;;;;;;5063150;28;20702;-67
2022/02/02 09:39:52;;;;;;;11.13;5.33;;;8.90;99.90;;;;;;5066807;28;20274;-65
2022/02/02 09:42:22;;;;;;;12.73;5.67;;;8.90;99.90;;;;;;5060674;28;20661;-67
2022/02/02 09:44:56;;;;;;;12.93;5.97;;;8.90;99.90;;;;;;5058613;28;20235;-65
2022/02/02 09:47:29;;;;;;;10.97;5.77;;;9.00;99.90;;;;;;5059680;28;20232;-65
2022/02/02 09:50:04;;;;;;;11.97;6.17;;;9.00;99.90;;;;;;5069020;28;20203;-65
2022/02/02 09:52:39;;;;;;;14.40;6.77;;;9.00;99.90;;;;;;5055823;28;20187;-68
2022/02/02 09:55:13;;;;;;;12.77;7.23;;;9.10;99.90;;;;;;5060596;28;20613;-68
2022/02/02 10:06:15;;;;;;;13.93;8.67;;;9.20;99.90;;;;;;5034019;28;20212;-67
2022/02/02 10:09:17;;;;;;;13.00;8.53;;;9.20;99.90;;;;;;5056988;28;20204;-69
2022/02/02 10:15:02;;;;;;;12.93;9.07;;;9.20;99.90;;;;;;5067844;28;20207;-66
2022/02/02 10:17:33;;;;;;;11.83;8.93;;;9.20;99.90;;;;;;5066151;28;20270;-66
2022/02/02 10:20:18;;;;;;;13.83;9.80;;;9.20;99.90;;;;;;5063002;28;20207;-67
2022/02/02 10:22:48;;;;;;;13.47;9.20;;;9.20;99.90;;;;;;5058227;28;20254;-67
2022/02/02 10:25:27;;;;;;;18.27;10.20;;;9.20;99.90;;;;;;5060728;28;20266;-68
2022/02/02 10:28:08;;;;;;;12.97;8.73;;;9.30;99.90;;;;;;5058981;28;20303;-67
2022/02/02 10:30:37;;;;;;;12.77;9.10;;;9.20;99.90;;;;;;5053976;28;20522;-67
2022/02/02 10:33:06;;;;;;;18.27;10.43;;;9.30;99.90;;;;;;5057715;28;20280;-68
2022/02/02 10:35:38;;;;;;;13.07;9.67;;;9.30;99.90;;;;;;5054962;28;20223;-67
2022/02/02 10:38:26;;;;;;;17.40;10.33;;;9.30;99.90;;;;;;5057780;28;20211;-66
2022/02/02 10:41:06;;;;;;;24.43;11.70;;;9.30;99.90;;;;;;5058832;28;20207;-68
2022/02/02 10:43:38;;;;;;;23.47;11.93;;;9.30;99.90;;;;;;5062852;28;20227;-69
2022/02/02 10:46:16;;;;;;;21.30;12.33;;;9.40;99.90;;;;;;5063712;28;20200;-68
2022/02/02 10:48:49;;;;;;;19.03;11.33;;;9.40;99.90;;;;;;5061902;28;20188;-66
2022/02/02 10:51:32;;;;;;;18.13;11.60;;;9.40;99.90;;;;;;5057946;28;20257;-68
2022/02/02 10:54:24;;;;;;;19.20;11.33;;;9.50;99.90;;;;;;5057856;28;20253;-67
2022/02/02 10:57:07;;;;;;;19.93;11.70;;;9.60;99.90;;;;;;5058291;28;20547;-67
2022/02/02 10:59:57;;;;;;;18.43;10.50;;;9.70;99.90;;;;;;5061609;28;20550;-69
2022/02/02 11:07:59;;;;;;;15.27;9.13;;;9.80;99.90;;;;;;5059542;28;20191;-67
2022/02/02 11:10:30;;;;;;;15.03;8.00;;;9.80;99.90;;;;;;5069424;28;20185;-66
2022/02/02 11:13:00;;;;;;;15.67;8.93;;;9.80;99.90;;;;;;5051607;28;20654;-65
2022/02/02 11:15:38;;;;;;;19.07;8.80;;;9.80;99.90;;;;;;5069097;28;20200;-67
2022/02/02 11:18:15;;;;;;;12.67;8.53;;;9.70;99.90;;;;;;5065342;28;20273;-68
2022/02/02 11:20:45;;;;;;;13.53;8.30;;;9.70;99.90;;;;;;5047963;28;20649;-66
2022/02/02 11:23:13;;;;;;;11.57;8.00;;;9.70;99.90;;;;;;5058561;28;20200;-67
2022/02/02 11:25:49;;;;;;;16.90;8.40;;;9.60;99.90;;;;;;5058023;28;20415;-67
2022/02/02 11:28:29;;;;;;;15.37;7.53;;;9.60;99.90;;;;;;5061662;28;20232;-67
2022/02/02 11:31:18;;;;;;;12.83;7.80;;;9.60;99.90;;;;;;5059188;28;20235;-66
2022/02/02 11:33:56;;;;;;;14.87;7.77;;;9.60;99.90;;;;;;5052348;28;20917;-67
2022/02/02 11:36:31;;;;;;;11.27;7.23;;;9.60;99.90;;;;;;5061336;28;20184;-66
2022/02/02 11:39:02;;;;;;;12.37;7.07;;;9.60;99.90;;;;;;5049853;28;20731;-67
2022/02/02 11:44:38;;;;;;;9.67;6.77;;;9.60;99.90;;;;;;5059605;28;20703;-66
2022/02/02 11:47:09;;;;;;;12.80;7.57;;;9.60;99.90;;;;;;5059030;28;20227;-68
2022/02/02 11:49:49;;;;;;;11.63;8.33;;;9.60;99.90;;;;;;5064278;28;20196;-66
2022/02/02 11:52:40;;;;;;;12.73;8.63;;;9.60;99.90;;;;;;5063755;28;20200;-67
2022/02/02 11:55:43;;;;;;;12.20;8.83;;;9.60;99.90;;;;;;5060287;28;20208;-67
2022/02/02 11:58:30;;;;;;;10.47;8.10;;;9.60;99.90;;;;;;5060038;28;20713;-67
2022/02/02 12:01:06;;;;;;;12.23;8.50;;;9.60;99.90;;;;;;5058228;28;20205;-67
2022/02/02 12:03:51;;;;;;;12.70;8.90;;;9.60;99.90;;;;;;5056343;28;20299;-68
2022/02/02 12:06:30;;;;;;;15.57;9.53;;;9.60;99.90;;;;;;5057831;28;20188;-67
2022/02/02 12:09:07;;;;;;;12.83;9.50;;;9.60;99.90;;;;;;5058217;28;20196;-67
2022/02/02 12:18:57;;;;;;;11.57;8.73;;;9.50;99.90;;;;;;5077625;28;20246;-67
2022/02/02 12:49:38;;;;;;;13.67;9.10;;;9.50;99.90;;;;;;5063143;28;20188;-66
2022/02/02 12:57:51;;;;;;;10.43;9.07;;;9.50;99.90;;;;;;5060387;28;20228;-68
2022/02/02 13:00:23;;;;;;;16.17;9.87;;;9.50;99.90;;;;;;5073851;28;20197;-68
2022/02/02 13:02:53;;;;;;;16.17;10.67;;;9.50;99.90;;;;;;5061251;28;20208;-69
2022/02/02 13:05:24;;;;;;;15.13;10.00;;;9.50;99.90;;;;;;5058118;28;20196;-66
2022/02/02 13:07:55;;;;;;;13.67;10.20;;;9.60;99.90;;;;;;5062192;28;20231;-66
2022/02/02 13:10:25;;;;;;;13.20;10.33;;;9.60;99.90;;;;;;5051625;28;20224;-67
2022/02/02 13:13:05;;;;;;;12.30;10.23;;;9.60;99.90;;;;;;5056424;28;20211;-67
2022/02/02 13:15:39;;;;;;;14.67;10.90;;;9.60;99.90;;;;;;5056519;28;20200;-69
2022/02/02 13:18:16;;;;;;;14.33;10.57;;;9.60;99.90;;;;;;5063733;28;20696;-68
2022/02/02 13:20:52;;;;;;;16.40;10.70;;;9.60;99.90;;;;;;5056641;28;20199;-67
2022/02/02 13:23:27;;;;;;;14.50;10.23;;;9.60;99.90;;;;;;5056579;28;20216;-67
2022/02/02 13:26:01;;;;;;;15.60;10.93;;;9.60;99.90;;;;;;5057984;28;20192;-67
2022/02/02 13:28:44;;;;;;;16.73;11.07;;;9.60;99.90;;;;;;5056376;28;20627;-68
2022/02/02 13:31:38;;;;;;;16.67;10.93;;;9.60;99.90;;;;;;5057499;28;20219;-67
2022/02/02 13:34:15;;;;;;;16.20;10.73;;;9.60;99.90;;;;;;5053748;28;20253;-70
2022/02/02 13:36:54;;;;;;;14.00;11.07;;;9.70;99.90;;;;;;5058598;28;20200;-67
2022/02/02 13:46:09;;;;;;;14.87;11.73;;;9.80;99.90;;;;;;5009517;28;20193;-67
2022/02/02 13:48:57;;;;;;;28.20;15.80;;;9.90;99.90;;;;;;5059369;28;20192;-67
2022/02/02 13:51:52;;;;;;;19.97;12.67;;;9.90;99.90;;;;;;5060175;28;20205;-67
2022/02/02 13:54:45;;;;;;;25.37;14.50;;;9.90;99.90;;;;;;5056922;28;20232;-66
2022/02/02 14:00:27;;;;;;;18.87;12.67;;;9.90;99.90;;;;;;5053639;28;20224;-67
2022/02/02 14:33:54;;;;;;;16.47;9.97;;;9.90;99.90;;;;;;5032266;28;20200;-66
2022/02/02 14:36:26;;;;;;;12.80;8.80;;;9.80;99.90;;;;;;5057005;28;20301;-69
2022/02/02 14:38:59;;;;;;;10.07;7.60;;;9.80;99.90;;;;;;5051603;28;20262;-69
2022/02/02 14:41:37;;;;;;;10.87;9.17;;;9.80;99.90;;;;;;5061329;28;20204;-68
2022/02/02 14:44:12;;;;;;;13.33;8.83;;;9.90;99.90;;;;;;5054630;28;20313;-67
2022/02/02 14:46:45;;;;;;;12.60;9.77;;;9.90;99.90;;;;;;5054414;28;20194;-69
2022/02/02 14:49:19;;;;;;;15.50;9.90;;;9.90;99.90;;;;;;5055221;28;20199;-68
2022/02/02 14:51:59;;;;;;;12.20;8.30;;;9.90;99.90;;;;;;5054071;28;20546;-67
2022/02/02 14:54:44;;;;;;;10.10;7.83;;;9.90;99.90;;;;;;5056466;28;20193;-67
2022/02/02 15:09:10;;;;;;;21.43;11.57;;;9.80;99.90;;;;;;5056347;28;20709;-67
2022/02/02 15:26:42;;;;;;;12.97;8.47;;;9.70;99.90;;;;;;5053905;28;20201;-67
2022/02/02 15:29:13;;;;;;;13.37;8.57;;;9.70;99.90;;;;;;5073822;28;20199;-68
2022/02/02 15:31:44;;;;;;;15.33;9.20;;;9.70;99.90;;;;;;5062384;28;20204;-66
2022/02/02 15:34:36;;;;;;;12.33;9.37;;;9.70;99.90;;;;;;5066579;28;20294;-69
2022/02/02 15:40:01;;;;;;;17.73;9.30;;;9.60;99.90;;;;;;5058892;28;20212;-67
2022/02/02 15:42:43;;;;;;;12.23;8.53;;;9.60;99.90;;;;;;5060844;28;20205;-68
2022/02/02 15:59:12;;;;;;;15.57;8.63;;;9.50;99.90;;;;;;5057128;28;20220;-69
2022/02/02 16:04:36;;;;;;;17.93;8.93;;;9.50;99.90;;;;;;5043685;28;20287;-67
2022/02/02 16:07:07;;;;;;;20.77;9.80;;;9.50;99.90;;;;;;5057399;28;20315;-67
2022/02/02 16:09:48;;;;;;;15.53;8.40;;;9.50;99.90;;;;;;5038107;28;21092;-69
2022/02/02 16:12:21;;;;;;;19.70;11.17;;;9.50;99.90;;;;;;5060155;28;20200;-69
2022/02/02 16:14:58;;;;;;;18.83;10.20;;;9.40;99.90;;;;;;5058594;28;20196;-67
2022/02/02 16:17:46;;;;;;;17.47;10.63;;;9.40;99.90;;;;;;5055144;28;20197;-67
2022/02/02 16:31:37;;;;;;;19.13;9.60;;;9.20;99.90;;;;;;5057493;28;20191;-69
2022/02/02 16:36:53;;;;;;;20.70;11.50;;;9.20;99.90;;;;;;5056236;28;20258;-68
2022/02/02 16:39:24;;;;;;;21.60;10.83;;;9.20;99.90;;;;;;5059430;28;20692;-68
2022/02/02 16:44:39;;;;;;;18.73;14.53;;;9.10;99.90;;;;;;5066277;28;20278;-69
2022/02/02 16:47:08;;;;;;;21.33;14.60;;;9.00;99.90;;;;;;5040850;28;20808;-68
2022/02/02 16:49:57;;;;;;;19.47;10.30;;;9.00;99.90;;;;;;5055719;28;20611;-68
2022/02/02 16:52:30;;;;;;;21.50;10.87;;;9.00;99.90;;;;;;5056556;28;20270;-66
2022/02/02 16:55:03;;;;;;;19.67;10.80;;;8.90;99.90;;;;;;5055711;28;20685;-66
2022/02/02 16:57:44;;;;;;;17.07;9.90;;;8.90;99.90;;;;;;5059710;28;20199;-69
2022/02/02 17:30:47;;;;;;;22.90;13.00;;;8.70;99.90;;;;;;5050112;28;20282;-68
2022/02/02 17:33:20;;;;;;;26.77;14.43;;;8.70;99.90;;;;;;5057763;28;20198;-68
2022/02/02 17:36:05;;;;;;;23.80;13.37;;;8.70;99.90;;;;;;5061062;28;20189;-68
2022/02/02 17:38:45;;;;;;;23.83;15.83;;;8.70;99.90;;;;;;5071087;28;20680;-67
2022/02/02 17:41:27;;;;;;;27.47;16.40;;;8.80;99.90;;;;;;5061367;28;20219;-67
2022/02/02 17:44:24;;;;;;;23.57;13.53;;;8.80;99.90;;;;;;5057690;28;20232;-69
2022/02/02 18:20:46;;;;;;;17.60;12.73;;;8.70;99.90;;;;;;5055262;28;20244;-67
2022/02/02 18:23:22;;;;;;;25.10;18.07;;;8.70;99.90;;;;;;5058925;28;20745;-67
2022/02/02 18:25:57;;;;;;;30.00;20.17;;;8.60;99.90;;;;;;5063039;28;20200;-67
2022/02/02 18:28:30;;;;;;;21.23;15.37;;;8.60;99.90;;;;;;5065820;28;20229;-67
2022/02/02 18:31:12;;;;;;;20.93;15.20;;;8.70;99.90;;;;;;5060115;28;20189;-67
2022/02/02 18:33:50;;;;;;;18.87;13.43;;;8.70;99.90;;;;;;5064546;28;20207;-67
2022/02/02 18:36:30;;;;;;;21.50;13.93;;;8.70;99.90;;;;;;5063544;28;20199;-67
2022/02/02 18:47:47;;;;;;;26.27;20.37;;;8.70;99.90;;;;;;5063212;28;20273;-66
2022/02/02 18:50:42;;;;;;;23.73;14.57;;;8.70;99.90;;;;;;5045247;28;20275;-67
2022/02/02 18:56:14;;;;;;;21.00;13.80;;;8.70;99.90;;;;;;5059995;28;20673;-67
2022/02/02 18:58:53;;;;;;;19.97;14.93;;;8.70;99.90;;;;;;5069672;28;20188;-67
2022/02/02 19:01:32;;;;;;;22.47;14.47;;;8.70;99.90;;;;;;5065969;28;20303;-67
2022/02/02 19:40:42;;;;;;;27.87;19.87;;;8.90;99.90;;;;;;5100103;27;20210;-67
2022/02/02 19:57:25;;;;;;;31.47;20.40;;;8.90;99.90;;;;;;5054579;28;20317;-66
2022/02/02 20:03:09;;;;;;;38.40;22.60;;;8.90;99.90;;;;;;5082508;28;20187;-67
2022/02/02 20:05:43;;;;;;;40.00;22.93;;;8.90;99.90;;;;;;5102144;28;20201;-66
2022/02/02 20:08:34;;;;;;;40.13;23.63;;;8.90;99.90;;;;;;5117422;27;20188;-68
2022/02/02 20:11:05;;;;;;;45.37;26.87;;;8.90;99.90;;;;;;5098789;28;20232;-66
2022/02/02 20:13:36;;;;;;;45.00;25.47;;;8.90;99.90;;;;;;5103196;28;20191;-66
2022/02/02 20:16:05;;;;;;;43.83;24.93;;;9.00;99.90;;;;;;5098888;28;20219;-66
2022/02/02 20:18:38;;;;;;;44.40;24.73;;;8.90;99.90;;;;;;5084068;28;20191;-66
2022/02/02 20:21:09;;;;;;;46.77;26.27;;;8.90;99.90;;;;;;5102735;28;20195;-67
2022/02/02 20:23:43;;;;;;;45.73;24.40;;;8.90;99.90;;;;;;5099324;28;20245;-65
2022/02/02 20:26:15;;;;;;;48.23;26.43;;;9.00;99.90;;;;;;5080378;28;20336;-68
2022/02/02 20:28:44;;;;;;;57.90;30.97;;;9.00;99.90;;;;;;5091584;28;20195;-67
2022/02/02 20:31:14;;;;;;;43.30;25.53;;;8.90;99.90;;;;;;5061986;28;20249;-66
2022/02/02 20:33:43;;;;;;;43.67;25.23;;;9.00;99.90;;;;;;5088276;28;20217;-67
2022/02/02 20:36:11;;;;;;;52.93;27.23;;;9.00;99.90;;;;;;5086297;28;20223;-68
2022/02/02 20:38:42;;;;;;;52.80;26.10;;;8.90;99.90;;;;;;5086261;28;20441;-68
2022/02/02 20:41:11;;;;;;;59.27;32.10;;;8.90;99.90;;;;;;5063993;28;20192;-68
2022/02/02 20:43:48;;;;;;;52.53;29.10;;;8.90;99.90;;;;;;5099146;28;20221;-67
2022/02/02 20:46:37;;;;;;;49.10;27.60;;;8.90;99.90;;;;;;5087833;28;20199;-67
2022/02/02 21:00:33;;;;;;;49.57;24.97;;;8.90;99.90;;;;;;5084924;28;20226;-67
2022/02/02 21:05:54;;;;;;;41.33;23.37;;;9.00;99.90;;;;;;5085687;28;20194;-67
2022/02/02 21:08:43;;;;;;;40.83;24.87;;;8.90;99.90;;;;;;5084876;28;20260;-67
2022/02/02 21:11:19;;;;;;;47.47;26.87;;;8.90;99.90;;;;;;5065685;28;20195;-67
2022/02/02 21:13:53;;;;;;;51.70;27.17;;;8.90;99.90;;;;;;5086086;28;20227;-67
2022/02/02 21:16:28;;;;;;;40.77;23.00;;;8.90;99.90;;;;;;5084132;28;20310;-67
2022/02/02 21:19:00;;;;;;;41.40;28.37;;;8.90;99.90;;;;;;5090285;28;20194;-67
2022/02/02 21:21:37;;;;;;;44.97;25.53;;;8.90;99.90;;;;;;5083601;28;20227;-66
2022/02/02 21:27:14;;;;;;;41.20;23.93;;;8.90;99.90;;;;;;5065390;28;20199;-67
2022/02/02 21:29:39;;;;;;;39.47;24.70;;;8.90;99.90;;;;;;5085373;28;20203;-67
2022/02/02 21:32:09;;;;;;;36.20;21.10;;;8.90;99.90;;;;;;5086756;28;20280;-66
2022/02/02 21:34:38;;;;;;;37.77;20.70;;;8.90;99.90;;;;;;5067324;28;20187;-67
2022/02/02 21:37:07;;;;;;;35.47;22.17;;;8.90;99.90;;;;;;5100676;28;20209;-67
2022/02/02 21:39:39;;;;;;;36.23;21.97;;;8.90;99.90;;;;;;5083036;28;20184;-67
2022/02/02 21:42:13;;;;;;;39.47;22.27;;;8.90;99.90;;;;;;5081782;28;20291;-66
2022/02/02 21:44:42;;;;;;;35.50;22.57;;;8.90;99.90;;;;;;5084128;28;20223;-67
2022/02/02 21:47:12;;;;;;;37.83;20.57;;;8.90;99.90;;;;;;5086986;28;20199;-67
2022/02/02 21:49:42;;;;;;;33.03;19.67;;;8.90;99.90;;;;;;5092585;28;20241;-67